Airfield :
LOGIN :

Register | Disclaimer

   EN    FR    IT 

 










Legend :    VFR   Marginal VFR   IFR   Intensive IFR   Very Intensive IFR
Visi :
Ceiling :
>= 8 km
>= 3000ft
5 to 8 km
1000 to 3000 ft
1500m to 5 km
500 to 1000 ft
800 to 1500m
200 to 500 ft
< 800m
< 200 ft
Symbols :   Thunderstorms  Fog  Heavy snow  Heavy precipitations  Wind > 20 kt
SIGMETs :     Misc.  Thunderstorms  Icing  Turbulence  Mountain Waves  Volcanic Ashes







- Airport Elevation : 28 ft
- IATA code : SOZ
- Download approach charts


LFKS - Solenzara

CURRENT METAR :
  • 220300Z AUTO 27003KT 250V310 9999 SCT033 BKN039 OVC072 05/02 Q1002

EXPIRED METARs :
  • 220230Z AUTO 28004KT 9999 SCT038 OVC072 06/02 Q1002
  • 220200Z AUTO 33004KT 290V350 9999 FEW031 OVC076 06/02 Q1002
  • 220130Z AUTO 34005KT 9999 FEW066 OVC076 06/02 Q1002
  • 220100Z AUTO VRB03KT 9999 BKN070 OVC080 06/02 Q1002
  • 220030Z AUTO 30003KT 280V340 9999 OVC070 07/02 Q1003
  • 220000Z AUTO 34004KT 9999 OVC070 07/02 Q1003

TAF TAF LFKS
Valid from the 21 at 15:00 until the 22 at 15:00 UTC


211400Z 2115/2215 35015KT 9999 OVC045
BECMG 2116/2117 32005KT
TEMPO 2115/2215 35015G25KT -SHRA SCT020TCU
No reported NOTAMs for that airfield.
3 SIGMETs reported for the Marseille FIR (LFMM) :
 
Embedded thunderstorms
LFMM SIGMET 9 VALID 220000/220400 LFPW
LFMM MARSEILLE FIR/UIR EMBD TS FCST WI N3930 E00430 - N4200 E00430 - N4200 E00415 - N4215 E00815 - N4130 E00945 - N4115 E00800 - N4000 E00800 - N3930 E00430 TOP FL230 STNR NC=
Severe turbulence
LFMM SIGMET 11 VALID 220200/220600 LFPW
LFMM MARSEILLE FIR/UIR SEV TURB FCST WI N4215 E00245 - N4215 E00230 - N4630 E00300 - N4630 E00515 - N4215 E00245 FL170/250 STNR NC=
Severe turbulence
LFMM SIGMET 10 VALID 220000/220400 LFPW
LFMM MARSEILLE FIR/UIR SEV TURB FCST WI N4200 E00400 - N4215 E00230 - N4300 E00230 - N4245 E00400 - N4200 E00400 SFC/FL050 STNR NC=



MET'MAP, your aeronautical weather chart ! - Copyright ORBIFLY December 2007 - Disclaimer

ORBIFLY MET'MAP TEAM :

Programming & Development : Alexandra Zaïnal
Concept & Development : Baudouin d'Aumeries
Co-Development & Prog : Marc-Olivier Méhu
Technical & hardware support : Manuel Goepfert

Contact : metmap@orbifly.com




SOURCES & CREDITS :

   NOAA